sensor_id;sensor_type;location;lat;lon;timestamp;pressure;altitude;pressure_sealevel;temperature;humidity
8101;BME280;4093;53.470;9.832;2023-12-20T00:02:00;100837.09;;;9.16;90.51
8101;BME280;4093;53.470;9.832;2023-12-20T00:04:29;100842.91;;;9.33;90.82
8101;BME280;4093;53.470;9.832;2023-12-20T00:06:56;100833.38;;;9.40;90.12
8101;BME280;4093;53.470;9.832;2023-12-20T00:09:24;100829.03;;;9.45;89.82
8101;BME280;4093;53.470;9.832;2023-12-20T00:11:52;100827.53;;;9.25;90.04
8101;BME280;4093;53.470;9.832;2023-12-20T00:14:21;100830.81;;;9.37;88.67
8101;BME280;4093;53.470;9.832;2023-12-20T00:16:49;100831.19;;;9.04;90.21
8101;BME280;4093;53.470;9.832;2023-12-20T00:19:16;100838.72;;;9.24;89.29
8101;BME280;4093;53.470;9.832;2023-12-20T00:21:44;100833.56;;;9.23;89.04
8101;BME280;4093;53.470;9.832;2023-12-20T00:24:12;100823.16;;;9.32;88.98
8101;BME280;4093;53.470;9.832;2023-12-20T00:26:40;100821.56;;;9.22;89.17
8101;BME280;4093;53.470;9.832;2023-12-20T00:29:07;100825.91;;;9.17;90.30
8101;BME280;4093;53.470;9.832;2023-12-20T00:31:36;100819.00;;;9.17;90.42
8101;BME280;4093;53.470;9.832;2023-12-20T00:34:04;100815.75;;;8.98;90.72
8101;BME280;4093;53.470;9.832;2023-12-20T00:36:32;100809.66;;;9.07;90.67
8101;BME280;4093;53.470;9.832;2023-12-20T00:39:00;100814.00;;;9.02;90.86
8101;BME280;4093;53.470;9.832;2023-12-20T00:41:27;100807.25;;;8.89;91.94
8101;BME280;4093;53.470;9.832;2023-12-20T00:43:55;100814.63;;;9.24;89.41
8101;BME280;4093;53.470;9.832;2023-12-20T00:46:23;100819.03;;;9.14;90.73
8101;BME280;4093;53.470;9.832;2023-12-20T00:48:52;100808.13;;;8.86;91.74
8101;BME280;4093;53.470;9.832;2023-12-20T00:51:20;100812.31;;;9.01;91.03
8101;BME280;4093;53.470;9.832;2023-12-20T00:53:49;100806.19;;;9.10;90.33
8101;BME280;4093;53.470;9.832;2023-12-20T00:56:21;100801.78;;;9.19;90.80
8101;BME280;4093;53.470;9.832;2023-12-20T00:58:48;100800.13;;;9.15;89.95
8101;BME280;4093;53.470;9.832;2023-12-20T01:01:16;100802.72;;;9.14;91.24
8101;BME280;4093;53.470;9.832;2023-12-20T01:03:44;100803.34;;;9.33;90.14
8101;BME280;4093;53.470;9.832;2023-12-20T01:06:13;100791.47;;;9.19;89.79
8101;BME280;4093;53.470;9.832;2023-12-20T01:08:42;100781.00;;;8.45;92.18
8101;BME280;4093;53.470;9.832;2023-12-20T01:11:10;100795.41;;;8.69;91.87
8101;BME280;4093;53.470;9.832;2023-12-20T01:13:37;100786.09;;;8.56;92.54
8101;BME280;4093;53.470;9.832;2023-12-20T01:16:05;100782.78;;;8.37;92.88
8101;BME280;4093;53.470;9.832;2023-12-20T01:18:33;100768.91;;;8.52;92.20
8101;BME280;4093;53.470;9.832;2023-12-20T01:21:01;100775.91;;;8.39;91.87
8101;BME280;4093;53.470;9.832;2023-12-20T01:23:31;100770.84;;;8.24;93.57
8101;BME280;4093;53.470;9.832;2023-12-20T01:25:59;100773.47;;;8.16;92.84
8101;BME280;4093;53.470;9.832;2023-12-20T01:28:27;100786.00;;;8.65;92.72
8101;BME280;4093;53.470;9.832;2023-12-20T01:30:55;100774.03;;;8.58;92.20
8101;BME280;4093;53.470;9.832;2023-12-20T01:33:22;100772.50;;;8.34;92.91
8101;BME280;4093;53.470;9.832;2023-12-20T01:35:50;100782.75;;;8.43;93.43
8101;BME280;4093;53.470;9.832;2023-12-20T01:38:17;100786.13;;;8.50;92.63
8101;BME280;4093;53.470;9.832;2023-12-20T01:40:47;100760.59;;;8.15;93.17
8101;BME280;4093;53.470;9.832;2023-12-20T01:43:15;100784.28;;;8.66;92.36
8101;BME280;4093;53.470;9.832;2023-12-20T01:45:43;100772.44;;;8.42;93.26
8101;BME280;4093;53.470;9.832;2023-12-20T01:48:11;100765.41;;;8.61;91.81
8101;BME280;4093;53.470;9.832;2023-12-20T01:50:39;100749.22;;;8.49;91.24
8101;BME280;4093;53.470;9.832;2023-12-20T01:53:09;100755.41;;;8.21;92.57
8101;BME280;4093;53.470;9.832;2023-12-20T01:55:39;100755.41;;;8.18;94.00
8101;BME280;4093;53.470;9.832;2023-12-20T01:58:09;100768.09;;;8.48;92.92
8101;BME280;4093;53.470;9.832;2023-12-20T02:00:37;100773.16;;;8.57;92.97
8101;BME280;4093;53.470;9.832;2023-12-20T02:03:06;100753.53;;;8.44;92.96
8101;BME280;4093;53.470;9.832;2023-12-20T02:05:35;100746.97;;;8.02;93.93
8101;BME280;4093;53.470;9.832;2023-12-20T02:08:03;100753.72;;;8.21;93.90
8101;BME280;4093;53.470;9.832;2023-12-20T02:10:32;100746.78;;;8.26;92.85
8101;BME280;4093;53.470;9.832;2023-12-20T02:13:00;100755.13;;;8.57;92.29
8101;BME280;4093;53.470;9.832;2023-12-20T02:15:29;100754.47;;;8.29;93.73
8101;BME280;4093;53.470;9.832;2023-12-20T02:17:56;100747.56;;;8.39;93.69
8101;BME280;4093;53.470;9.832;2023-12-20T02:20:24;100750.78;;;8.64;92.61
8101;BME280;4093;53.470;9.832;2023-12-20T02:22:53;100743.22;;;8.44;93.11
8101;BME280;4093;53.470;9.832;2023-12-20T02:25:21;100732.34;;;8.07;94.41
8101;BME280;4093;53.470;9.832;2023-12-20T02:27:49;100725.44;;;8.10;93.61
8101;BME280;4093;53.470;9.832;2023-12-20T02:30:18;100736.31;;;8.52;93.68
8101;BME280;4093;53.470;9.832;2023-12-20T02:32:46;100734.78;;;8.21;93.51
8101;BME280;4093;53.470;9.832;2023-12-20T02:35:14;100732.13;;;8.33;93.23
8101;BME280;4093;53.470;9.832;2023-12-20T02:37:42;100718.53;;;8.19;93.61
8101;BME280;4093;53.470;9.832;2023-12-20T02:40:11;100729.56;;;8.30;93.53
8101;BME280;4093;53.470;9.832;2023-12-20T02:42:39;100719.25;;;8.34;93.05
8101;BME280;4093;53.470;9.832;2023-12-20T02:45:07;100720.88;;;8.48;92.77
8101;BME280;4093;53.470;9.832;2023-12-20T02:47:35;100716.66;;;8.39;91.62
8101;BME280;4093;53.470;9.832;2023-12-20T02:50:03;100722.63;;;8.37;91.45
8101;BME280;4093;53.470;9.832;2023-12-20T02:52:31;100709.88;;;8.26;92.31
8101;BME280;4093;53.470;9.832;2023-12-20T02:54:59;100706.28;;;8.47;91.44
8101;BME280;4093;53.470;9.832;2023-12-20T02:57:28;100697.78;;;8.34;91.84
8101;BME280;4093;53.470;9.832;2023-12-20T02:59:55;100698.72;;;8.24;92.09
8101;BME280;4093;53.470;9.832;2023-12-20T03:02:23;100687.66;;;8.11;93.31
8101;BME280;4093;53.470;9.832;2023-12-20T03:04:51;100699.56;;;8.26;92.40
8101;BME280;4093;53.470;9.832;2023-12-20T03:07:18;100697.00;;;8.23;92.17
8101;BME280;4093;53.470;9.832;2023-12-20T03:09:46;100697.06;;;8.17;92.96
8101;BME280;4093;53.470;9.832;2023-12-20T03:12:35;100697.91;;;8.17;92.61
8101;BME280;4093;53.470;9.832;2023-12-20T03:15:03;100702.78;;;8.55;92.36
8101;BME280;4093;53.470;9.832;2023-12-20T03:17:31;100685.16;;;8.03;92.67
8101;BME280;4093;53.470;9.832;2023-12-20T03:19:59;100695.19;;;8.40;92.93
8101;BME280;4093;53.470;9.832;2023-12-20T03:22:27;100690.03;;;8.37;92.96
8101;BME280;4093;53.470;9.832;2023-12-20T03:24:55;100686.63;;;8.32;92.97
8101;BME280;4093;53.470;9.832;2023-12-20T03:27:23;100683.00;;;8.54;91.77
8101;BME280;4093;53.470;9.832;2023-12-20T03:29:52;100677.88;;;8.51;91.75
8101;BME280;4093;53.470;9.832;2023-12-20T03:32:20;100676.47;;;8.17;92.20
8101;BME280;4093;53.470;9.832;2023-12-20T03:34:47;100694.81;;;8.74;90.93
8101;BME280;4093;53.470;9.832;2023-12-20T03:37:15;100687.41;;;8.45;92.81
8101;BME280;4093;53.470;9.832;2023-12-20T03:39:43;100682.38;;;8.26;92.54
8101;BME280;4093;53.470;9.832;2023-12-20T03:42:11;100683.03;;;8.51;91.72
8101;BME280;4093;53.470;9.832;2023-12-20T03:44:39;100689.50;;;8.89;90.59
8101;BME280;4093;53.470;9.832;2023-12-20T03:47:09;100670.28;;;8.41;91.30
8101;BME280;4093;53.470;9.832;2023-12-20T03:49:36;100666.97;;;8.23;93.19
8101;BME280;4093;53.470;9.832;2023-12-20T03:52:05;100652.28;;;8.30;93.06
8101;BME280;4093;53.470;9.832;2023-12-20T03:54:34;100658.31;;;8.29;93.11
8101;BME280;4093;53.470;9.832;2023-12-20T03:57:03;100646.25;;;8.39;92.40
8101;BME280;4093;53.470;9.832;2023-12-20T03:59:34;100664.81;;;8.70;91.80
8101;BME280;4093;53.470;9.832;2023-12-20T04:02:02;100646.88;;;8.61;91.49
8101;BME280;4093;53.470;9.832;2023-12-20T04:04:31;100652.81;;;8.67;90.59
8101;BME280;4093;53.470;9.832;2023-12-20T04:06:59;100642.75;;;8.43;92.22
8101;BME280;4093;53.470;9.832;2023-12-20T04:09:27;100648.66;;;8.55;90.99
8101;BME280;4093;53.470;9.832;2023-12-20T04:11:55;100637.56;;;8.46;91.87
8101;BME280;4093;53.470;9.832;2023-12-20T04:14:43;100643.31;;;8.72;90.72
8101;BME280;4093;53.470;9.832;2023-12-20T04:17:11;100635.25;;;8.18;92.49
8101;BME280;4093;53.470;9.832;2023-12-20T04:19:40;100640.16;;;8.47;92.15
8101;BME280;4093;53.470;9.832;2023-12-20T04:22:07;100636.66;;;8.51;92.24
8101;BME280;4093;53.470;9.832;2023-12-20T04:24:35;100629.94;;;8.33;92.39
8101;BME280;4093;53.470;9.832;2023-12-20T04:27:03;100635.56;;;8.71;91.40
8101;BME280;4093;53.470;9.832;2023-12-20T04:29:31;100635.88;;;8.46;92.60
8101;BME280;4093;53.470;9.832;2023-12-20T04:31:59;100636.38;;;8.76;91.75
8101;BME280;4093;53.470;9.832;2023-12-20T04:34:26;100633.72;;;8.82;90.66
8101;BME280;4093;53.470;9.832;2023-12-20T04:36:56;100631.88;;;8.93;90.40
8101;BME280;4093;53.470;9.832;2023-12-20T04:39:28;100617.59;;;8.65;91.50
8101;BME280;4093;53.470;9.832;2023-12-20T04:41:56;100609.09;;;8.60;91.88
8101;BME280;4093;53.470;9.832;2023-12-20T04:44:23;100611.75;;;8.52;92.25
8101;BME280;4093;53.470;9.832;2023-12-20T04:46:51;100613.13;;;8.82;90.93
8101;BME280;4093;53.470;9.832;2023-12-20T04:49:19;100612.41;;;8.68;91.36
8101;BME280;4093;53.470;9.832;2023-12-20T04:51:46;100610.16;;;8.40;93.69
8101;BME280;4093;53.470;9.832;2023-12-20T04:54:15;100592.25;;;8.23;94.06
8101;BME280;4093;53.470;9.832;2023-12-20T04:56:43;100587.25;;;8.13;93.94
8101;BME280;4093;53.470;9.832;2023-12-20T04:59:11;100587.31;;;8.03;95.08
8101;BME280;4093;53.470;9.832;2023-12-20T05:01:39;100602.44;;;8.40;93.97
8101;BME280;4093;53.470;9.832;2023-12-20T05:04:07;100601.44;;;8.53;93.01
8101;BME280;4093;53.470;9.832;2023-12-20T05:06:35;100593.69;;;8.53;92.72
8101;BME280;4093;53.470;9.832;2023-12-20T05:09:03;100602.09;;;8.68;92.29
8101;BME280;4093;53.470;9.832;2023-12-20T05:11:32;100600.25;;;8.79;91.98
8101;BME280;4093;53.470;9.832;2023-12-20T05:13:59;100587.50;;;8.68;92.02
8101;BME280;4093;53.470;9.832;2023-12-20T05:16:27;100597.78;;;8.70;92.39
8101;BME280;4093;53.470;9.832;2023-12-20T05:18:55;100582.69;;;8.39;93.52
8101;BME280;4093;53.470;9.832;2023-12-20T05:21:23;100579.59;;;8.02;95.38
8101;BME280;4093;53.470;9.832;2023-12-20T05:23:50;100582.66;;;8.44;93.70
8101;BME280;4093;53.470;9.832;2023-12-20T05:26:18;100598.84;;;8.53;93.95
8101;BME280;4093;53.470;9.832;2023-12-20T05:28:47;100601.16;;;8.76;92.11
8101;BME280;4093;53.470;9.832;2023-12-20T05:31:15;100585.13;;;8.51;91.51
8101;BME280;4093;53.470;9.832;2023-12-20T05:33:42;100578.38;;;8.41;93.52
8101;BME280;4093;53.470;9.832;2023-12-20T05:36:10;100579.13;;;8.52;93.22
8101;BME280;4093;53.470;9.832;2023-12-20T05:38:40;100592.56;;;8.76;92.22
8101;BME280;4093;53.470;9.832;2023-12-20T05:41:08;100593.25;;;8.90;90.97
8101;BME280;4093;53.470;9.832;2023-12-20T05:43:35;100581.44;;;8.71;92.81
8101;BME280;4093;53.470;9.832;2023-12-20T05:46:05;100579.75;;;8.71;92.48
8101;BME280;4093;53.470;9.832;2023-12-20T05:48:32;100587.25;;;8.88;92.09
8101;BME280;4093;53.470;9.832;2023-12-20T05:51:00;100571.53;;;8.39;93.86
8101;BME280;4093;53.470;9.832;2023-12-20T05:53:28;100588.19;;;8.84;93.32
8101;BME280;4093;53.470;9.832;2023-12-20T05:55:56;100577.44;;;8.48;93.80
8101;BME280;4093;53.470;9.832;2023-12-20T05:58:23;100580.63;;;8.69;92.78
8101;BME280;4093;53.470;9.832;2023-12-20T06:00:51;100576.28;;;8.71;93.88
8101;BME280;4093;53.470;9.832;2023-12-20T06:03:20;100583.97;;;8.75;92.48
8101;BME280;4093;53.470;9.832;2023-12-20T06:05:48;100580.38;;;8.90;92.05
8101;BME280;4093;53.470;9.832;2023-12-20T06:08:18;100570.31;;;8.67;92.03
8101;BME280;4093;53.470;9.832;2023-12-20T06:10:45;100572.59;;;8.92;92.83
8101;BME280;4093;53.470;9.832;2023-12-20T06:13:13;100556.97;;;8.33;92.50
8101;BME280;4093;53.470;9.832;2023-12-20T06:15:41;100565.16;;;8.67;92.41
8101;BME280;4093;53.470;9.832;2023-12-20T06:18:09;100546.78;;;8.21;94.73
8101;BME280;4093;53.470;9.832;2023-12-20T06:20:38;100560.19;;;8.52;92.89
8101;BME280;4093;53.470;9.832;2023-12-20T06:23:05;100556.59;;;8.67;92.93
8101;BME280;4093;53.470;9.832;2023-12-20T06:25:33;100546.94;;;8.84;91.64
8101;BME280;4093;53.470;9.832;2023-12-20T06:28:01;100553.13;;;8.69;91.67
8101;BME280;4093;53.470;9.832;2023-12-20T06:30:28;100550.94;;;9.02;90.39
8101;BME280;4093;53.470;9.832;2023-12-20T06:32:56;100540.88;;;8.85;90.53
8101;BME280;4093;53.470;9.832;2023-12-20T06:35:24;100524.19;;;8.46;91.93
8101;BME280;4093;53.470;9.832;2023-12-20T06:37:53;100538.66;;;8.57;91.79
8101;BME280;4093;53.470;9.832;2023-12-20T06:40:21;100536.50;;;8.92;90.27
8101;BME280;4093;53.470;9.832;2023-12-20T06:42:49;100516.56;;;8.40;93.24
8101;BME280;4093;53.470;9.832;2023-12-20T06:45:32;100527.16;;;8.85;91.10
8101;BME280;4093;53.470;9.832;2023-12-20T06:47:59;100521.72;;;9.03;90.71
8101;BME280;4093;53.470;9.832;2023-12-20T06:50:27;100531.06;;;9.09;89.25
8101;BME280;4093;53.470;9.832;2023-12-20T06:52:56;100516.13;;;8.73;92.13
8101;BME280;4093;53.470;9.832;2023-12-20T06:55:24;100500.16;;;8.45;92.33
8101;BME280;4093;53.470;9.832;2023-12-20T06:57:52;100498.31;;;8.55;92.49
8101;BME280;4093;53.470;9.832;2023-12-20T07:00:20;100494.78;;;8.65;91.54
8101;BME280;4093;53.470;9.832;2023-12-20T07:02:48;100486.34;;;8.52;93.31
8101;BME280;4093;53.470;9.832;2023-12-20T07:05:16;100501.28;;;8.89;92.13
8101;BME280;4093;53.470;9.832;2023-12-20T07:07:46;100496.25;;;8.80;92.55
8101;BME280;4093;53.470;9.832;2023-12-20T07:10:16;100480.28;;;8.56;92.79
8101;BME280;4093;53.470;9.832;2023-12-20T07:12:44;100491.06;;;8.85;91.53
8101;BME280;4093;53.470;9.832;2023-12-20T07:15:12;100491.16;;;8.77;91.91
8101;BME280;4093;53.470;9.832;2023-12-20T07:17:40;100476.53;;;8.79;91.34
8101;BME280;4093;53.470;9.832;2023-12-20T07:20:08;100460.03;;;8.27;93.77
8101;BME280;4093;53.470;9.832;2023-12-20T07:22:38;100471.72;;;8.54;93.66
8101;BME280;4093;53.470;9.832;2023-12-20T07:25:06;100484.22;;;8.82;92.53
8101;BME280;4093;53.470;9.832;2023-12-20T07:27:36;100471.94;;;8.33;93.08
8101;BME280;4093;53.470;9.832;2023-12-20T07:30:04;100480.16;;;8.66;92.99
8101;BME280;4093;53.470;9.832;2023-12-20T07:32:32;100489.34;;;8.84;92.68
8101;BME280;4093;53.470;9.832;2023-12-20T07:35:00;100483.97;;;8.34;93.45
8101;BME280;4093;53.470;9.832;2023-12-20T07:37:28;100464.09;;;8.47;93.55
8101;BME280;4093;53.470;9.832;2023-12-20T07:39:55;100482.41;;;8.89;91.84
8101;BME280;4093;53.470;9.832;2023-12-20T07:42:23;100487.59;;;8.86;92.67
8101;BME280;4093;53.470;9.832;2023-12-20T07:44:52;100462.31;;;8.50;93.25
8101;BME280;4093;53.470;9.832;2023-12-20T07:47:20;100475.91;;;8.62;93.65
8101;BME280;4093;53.470;9.832;2023-12-20T07:49:48;100476.56;;;8.76;92.88
8101;BME280;4093;53.470;9.832;2023-12-20T07:52:18;100479.25;;;9.24;90.79
8101;BME280;4093;53.470;9.832;2023-12-20T07:54:45;100461.50;;;9.06;91.04
8101;BME280;4093;53.470;9.832;2023-12-20T07:57:13;100457.19;;;9.08;91.08
8101;BME280;4093;53.470;9.832;2023-12-20T07:59:41;100454.69;;;9.03;91.40
8101;BME280;4093;53.470;9.832;2023-12-20T08:02:12;100482.97;;;9.08;90.63
8101;BME280;4093;53.470;9.832;2023-12-20T08:04:40;100477.69;;;9.15;89.96
8101;BME280;4093;53.470;9.832;2023-12-20T08:07:08;100476.06;;;9.10;90.35
8101;BME280;4093;53.470;9.832;2023-12-20T08:09:36;100484.06;;;9.45;89.66
8101;BME280;4093;53.470;9.832;2023-12-20T08:12:04;100463.03;;;9.17;89.90
8101;BME280;4093;53.470;9.832;2023-12-20T08:14:31;100460.44;;;9.17;90.07
8101;BME280;4093;53.470;9.832;2023-12-20T08:16:59;100463.94;;;9.66;88.77
8101;BME280;4093;53.470;9.832;2023-12-20T08:19:28;100456.09;;;9.70;88.07
8101;BME280;4093;53.470;9.832;2023-12-20T08:21:56;100421.09;;;9.06;89.81
8101;BME280;4093;53.470;9.832;2023-12-20T08:24:23;100418.63;;;8.98;90.60
8101;BME280;4093;53.470;9.832;2023-12-20T08:26:51;100424.59;;;9.03;91.44
8101;BME280;4093;53.470;9.832;2023-12-20T08:29:19;100425.13;;;9.22;89.66
8101;BME280;4093;53.470;9.832;2023-12-20T08:31:52;100431.88;;;9.31;90.06
8101;BME280;4093;53.470;9.832;2023-12-20T08:34:20;100417.16;;;8.84;91.37
8101;BME280;4093;53.470;9.832;2023-12-20T08:36:50;100433.03;;;9.12;91.33
8101;BME280;4093;53.470;9.832;2023-12-20T08:39:21;100424.88;;;9.36;90.44
8101;BME280;4093;53.470;9.832;2023-12-20T08:41:48;100413.53;;;9.46;89.22
8101;BME280;4093;53.470;9.832;2023-12-20T08:44:16;100408.38;;;8.97;92.40
8101;BME280;4093;53.470;9.832;2023-12-20T08:46:44;100433.34;;;9.44;92.01
8101;BME280;4093;53.470;9.832;2023-12-20T08:49:11;100415.91;;;9.08;92.38
8101;BME280;4093;53.470;9.832;2023-12-20T08:51:39;100418.75;;;9.43;92.10
8101;BME280;4093;53.470;9.832;2023-12-20T08:54:09;100415.66;;;9.24;93.04
8101;BME280;4093;53.470;9.832;2023-12-20T08:56:37;100417.25;;;9.30;92.99
8101;BME280;4093;53.470;9.832;2023-12-20T08:59:04;100416.50;;;9.23;93.43
8101;BME280;4093;53.470;9.832;2023-12-20T09:01:32;100395.97;;;9.17;93.15
8101;BME280;4093;53.470;9.832;2023-12-20T09:04:00;100407.09;;;9.21;92.99
8101;BME280;4093;53.470;9.832;2023-12-20T09:06:28;100397.53;;;8.75;94.33
8101;BME280;4093;53.470;9.832;2023-12-20T09:08:56;100374.63;;;8.56;95.23
8101;BME280;4093;53.470;9.832;2023-12-20T09:11:24;100378.09;;;8.54;93.79
8101;BME280;4093;53.470;9.832;2023-12-20T09:13:53;100396.13;;;8.55;93.10
8101;BME280;4093;53.470;9.832;2023-12-20T09:16:20;100425.44;;;8.45;94.25
8101;BME280;4093;53.470;9.832;2023-12-20T09:18:48;100427.22;;;8.43;95.25
8101;BME280;4093;53.470;9.832;2023-12-20T09:21:17;100415.06;;;8.51;94.99
8101;BME280;4093;53.470;9.832;2023-12-20T09:23:44;100450.13;;;8.63;93.89
8101;BME280;4093;53.470;9.832;2023-12-20T09:26:12;100425.78;;;8.18;95.71
8101;BME280;4093;53.470;9.832;2023-12-20T09:28:41;100458.91;;;8.50;94.12
8101;BME280;4093;53.470;9.832;2023-12-20T09:31:09;100458.88;;;8.53;93.27
8101;BME280;4093;53.470;9.832;2023-12-20T09:33:37;100438.75;;;8.11;94.70
8101;BME280;4093;53.470;9.832;2023-12-20T09:36:05;100438.66;;;8.83;92.25
8101;BME280;4093;53.470;9.832;2023-12-20T09:38:33;100433.28;;;8.38;92.12
8101;BME280;4093;53.470;9.832;2023-12-20T09:41:01;100426.13;;;8.60;92.05
8101;BME280;4093;53.470;9.832;2023-12-20T09:43:31;100420.13;;;8.59;91.33
8101;BME280;4093;53.470;9.832;2023-12-20T09:46:06;100441.69;;;9.08;90.70
8101;BME280;4093;53.470;9.832;2023-12-20T09:48:35;100446.66;;;9.20;89.20
8101;BME280;4093;53.470;9.832;2023-12-20T09:51:04;100452.66;;;9.20;89.79
8101;BME280;4093;53.470;9.832;2023-12-20T09:53:33;100453.34;;;9.30;89.45
8101;BME280;4093;53.470;9.832;2023-12-20T09:56:05;100444.81;;;9.28;89.64
8101;BME280;4093;53.470;9.832;2023-12-20T09:58:36;100440.56;;;9.24;88.05
8101;BME280;4093;53.470;9.832;2023-12-20T10:01:06;100446.25;;;9.44;87.00
8101;BME280;4093;53.470;9.832;2023-12-20T10:03:34;100409.34;;;8.88;88.56
8101;BME280;4093;53.470;9.832;2023-12-20T10:06:02;100423.44;;;9.20;88.42
8101;BME280;4093;53.470;9.832;2023-12-20T10:08:31;100420.31;;;9.02;87.76
8101;BME280;4093;53.470;9.832;2023-12-20T10:10:58;100423.78;;;8.98;87.52
8101;BME280;4093;53.470;9.832;2023-12-20T10:13:29;100436.59;;;9.04;87.80
8101;BME280;4093;53.470;9.832;2023-12-20T10:15:57;100439.56;;;9.34;86.35
8101;BME280;4093;53.470;9.832;2023-12-20T10:18:28;100408.59;;;8.82;87.79
8101;BME280;4093;53.470;9.832;2023-12-20T10:21:05;100447.22;;;8.85;87.51
8101;BME280;4093;53.470;9.832;2023-12-20T10:23:33;100435.94;;;8.93;86.94
8101;BME280;4093;53.470;9.832;2023-12-20T10:26:01;100437.28;;;9.14;85.31
8101;BME280;4093;53.470;9.832;2023-12-20T10:28:33;100434.91;;;8.45;87.97
8101;BME280;4093;53.470;9.832;2023-12-20T10:31:02;100430.22;;;8.73;88.41
8101;BME280;4093;53.470;9.832;2023-12-20T10:33:31;100427.75;;;8.65;87.42
8101;BME280;4093;53.470;9.832;2023-12-20T10:36:00;100425.66;;;8.90;86.17
8101;BME280;4093;53.470;9.832;2023-12-20T10:38:27;100408.34;;;8.40;87.02
8101;BME280;4093;53.470;9.832;2023-12-20T10:40:57;100422.34;;;8.80;86.42
8101;BME280;4093;53.470;9.832;2023-12-20T10:43:28;100434.00;;;9.04;85.84
8101;BME280;4093;53.470;9.832;2023-12-20T10:45:57;100423.69;;;8.49;87.43
8101;BME280;4093;53.470;9.832;2023-12-20T10:48:28;100430.63;;;9.01;85.99
8101;BME280;4093;53.470;9.832;2023-12-20T10:51:00;100416.31;;;8.83;87.05
8101;BME280;4093;53.470;9.832;2023-12-20T10:53:29;100405.09;;;8.86;86.97
8101;BME280;4093;53.470;9.832;2023-12-20T10:56:00;100395.25;;;8.56;87.23
8101;BME280;4093;53.470;9.832;2023-12-20T10:58:29;100408.63;;;8.80;87.26
8101;BME280;4093;53.470;9.832;2023-12-20T11:01:00;100393.25;;;8.74;87.38
8101;BME280;4093;53.470;9.832;2023-12-20T11:03:32;100397.97;;;9.01;86.25
8101;BME280;4093;53.470;9.832;2023-12-20T11:06:09;100388.22;;;8.65;87.38
8101;BME280;4093;53.470;9.832;2023-12-20T11:08:44;100385.06;;;8.47;88.20
8101;BME280;4093;53.470;9.832;2023-12-20T11:11:20;100383.56;;;8.88;87.76
8101;BME280;4093;53.470;9.832;2023-12-20T11:13:55;100394.72;;;8.90;87.38
8101;BME280;4093;53.470;9.832;2023-12-20T11:16:25;100391.63;;;8.68;88.19
8101;BME280;4093;53.470;9.832;2023-12-20T11:19:04;100385.59;;;8.68;87.77
8101;BME280;4093;53.470;9.832;2023-12-20T11:21:34;100395.63;;;8.88;87.30
8101;BME280;4093;53.470;9.832;2023-12-20T11:24:03;100399.25;;;8.76;88.26
8101;BME280;4093;53.470;9.832;2023-12-20T11:26:31;100406.22;;;8.68;87.99
8101;BME280;4093;53.470;9.832;2023-12-20T11:31:56;100404.16;;;8.90;87.68
8101;BME280;4093;53.470;9.832;2023-12-20T11:34:27;100402.31;;;8.99;86.81
8101;BME280;4093;53.470;9.832;2023-12-20T11:37:02;100415.50;;;9.32;85.48
8101;BME280;4093;53.470;9.832;2023-12-20T11:39:30;100404.34;;;9.30;86.07
8101;BME280;4093;53.470;9.832;2023-12-20T11:42:04;100392.75;;;9.06;86.53
8101;BME280;4093;53.470;9.832;2023-12-20T11:44:33;100403.66;;;9.20;85.20
8101;BME280;4093;53.470;9.832;2023-12-20T11:47:00;100409.13;;;9.02;86.48
8101;BME280;4093;53.470;9.832;2023-12-20T11:49:28;100404.94;;;8.96;87.59
8101;BME280;4093;53.470;9.832;2023-12-20T11:51:57;100413.72;;;9.36;86.05
8101;BME280;4093;53.470;9.832;2023-12-20T11:54:30;100415.91;;;9.56;86.33
8101;BME280;4093;53.470;9.832;2023-12-20T11:56:57;100427.44;;;9.84;84.57
8101;BME280;4093;53.470;9.832;2023-12-20T11:59:25;100428.22;;;9.41;86.55
8101;BME280;4093;53.470;9.832;2023-12-20T12:01:53;100401.72;;;8.80;87.22
8101;BME280;4093;53.470;9.832;2023-12-20T12:04:23;100397.94;;;9.03;86.95
8101;BME280;4093;53.470;9.832;2023-12-20T12:06:51;100391.31;;;8.87;86.24
8101;BME280;4093;53.470;9.832;2023-12-20T12:09:18;100405.94;;;8.86;87.57
8101;BME280;4093;53.470;9.832;2023-12-20T12:11:47;100397.66;;;8.67;86.74
8101;BME280;4093;53.470;9.832;2023-12-20T12:14:15;100411.53;;;9.13;85.65
8101;BME280;4093;53.470;9.832;2023-12-20T12:16:43;100417.41;;;9.21;84.83
8101;BME280;4093;53.470;9.832;2023-12-20T12:19:20;100400.72;;;8.91;85.19
8101;BME280;4093;53.470;9.832;2023-12-20T12:21:48;100392.59;;;9.14;83.91
8101;BME280;4093;53.470;9.832;2023-12-20T12:24:20;100397.63;;;9.21;82.67
8101;BME280;4093;53.470;9.832;2023-12-20T12:26:51;100377.78;;;9.25;82.48
8101;BME280;4093;53.470;9.832;2023-12-20T12:29:19;100388.00;;;9.31;81.81
8101;BME280;4093;53.470;9.832;2023-12-20T12:31:46;100388.75;;;9.38;82.47
8101;BME280;4093;53.470;9.832;2023-12-20T12:34:14;100398.84;;;9.50;82.79
8101;BME280;4093;53.470;9.832;2023-12-20T12:36:42;100387.06;;;9.35;83.14
8101;BME280;4093;53.470;9.832;2023-12-20T12:39:13;100388.41;;;9.56;82.41
8101;BME280;4093;53.470;9.832;2023-12-20T12:41:41;100384.06;;;9.10;83.39
8101;BME280;4093;53.470;9.832;2023-12-20T12:44:10;100396.75;;;9.21;82.83
8101;BME280;4093;53.470;9.832;2023-12-20T12:46:43;100402.88;;;9.62;81.86
8101;BME280;4093;53.470;9.832;2023-12-20T12:49:12;100386.22;;;9.33;81.90
8101;BME280;4093;53.470;9.832;2023-12-20T12:51:39;100398.13;;;9.42;81.07
8101;BME280;4093;53.470;9.832;2023-12-20T12:54:07;100407.53;;;8.96;81.99
8101;BME280;4093;53.470;9.832;2023-12-20T12:56:36;100391.53;;;9.25;80.22
8101;BME280;4093;53.470;9.832;2023-12-20T12:59:04;100416.16;;;9.43;80.37
8101;BME280;4093;53.470;9.832;2023-12-20T13:01:33;100422.41;;;9.30;80.13
8101;BME280;4093;53.470;9.832;2023-12-20T13:04:01;100417.28;;;9.29;80.28
8101;BME280;4093;53.470;9.832;2023-12-20T13:06:33;100411.75;;;9.48;79.74
8101;BME280;4093;53.470;9.832;2023-12-20T13:09:00;100406.69;;;9.44;79.58
8101;BME280;4093;53.470;9.832;2023-12-20T13:11:28;100415.81;;;9.62;78.98
8101;BME280;4093;53.470;9.832;2023-12-20T13:13:57;100419.56;;;9.90;79.02
8101;BME280;4093;53.470;9.832;2023-12-20T13:16:25;100411.25;;;9.76;79.22
8101;BME280;4093;53.470;9.832;2023-12-20T13:18:55;100401.38;;;9.52;80.09
8101;BME280;4093;53.470;9.832;2023-12-20T13:21:23;100391.88;;;9.54;79.27
8101;BME280;4093;53.470;9.832;2023-12-20T13:23:50;100399.84;;;9.41;80.35
8101;BME280;4093;53.470;9.832;2023-12-20T13:26:18;100399.91;;;9.37;81.00
8101;BME280;4093;53.470;9.832;2023-12-20T13:28:46;100405.69;;;9.51;80.65
8101;BME280;4093;53.470;9.832;2023-12-20T13:31:14;100406.41;;;9.58;80.82
8101;BME280;4093;53.470;9.832;2023-12-20T13:33:41;100411.81;;;9.45;80.95